createdAt,value
2018-04-10T00:04:11.421Z,8.40
2018-04-10T00:09:16.351Z,13.70
2018-04-10T00:14:19.643Z,8.13
2018-04-10T00:19:24.585Z,14.03
2018-04-10T00:24:30.856Z,11.33
2018-04-10T00:29:34.674Z,11.20
2018-04-10T00:34:38.090Z,10.97
2018-04-10T00:39:42.477Z,8.43
2018-04-10T00:44:45.789Z,12.27
2018-04-10T00:49:49.242Z,6.97
2018-04-10T00:54:52.660Z,12.13
2018-04-10T00:59:58.271Z,11.63
2018-04-10T01:05:01.735Z,9.87
2018-04-10T01:10:05.452Z,12.20
2018-04-10T01:15:08.742Z,10.20
2018-04-10T01:20:11.957Z,8.93
2018-04-10T01:25:15.684Z,10.60
2018-04-10T01:30:19.351Z,10.17
2018-04-10T01:35:23.147Z,7.37
2018-04-10T01:40:26.520Z,10.77
2018-04-10T01:45:30.440Z,8.10
2018-04-10T01:50:35.462Z,10.60
2018-04-10T01:55:38.763Z,8.67
2018-04-10T02:00:42.711Z,10.03
2018-04-10T02:05:46.018Z,8.30
2018-04-10T02:16:23.641Z,10.20
2018-04-10T02:21:30.539Z,14.33
2018-04-10T02:26:34.899Z,10.70
2018-04-10T02:31:38.554Z,11.20
2018-04-10T02:36:41.813Z,12.77
2018-04-10T02:41:45.454Z,11.10
2018-04-10T02:46:48.826Z,15.80
2018-04-10T02:51:52.109Z,15.87
2018-04-10T02:56:55.719Z,13.50
2018-04-10T03:01:58.940Z,10.23
2018-04-10T03:07:02.171Z,14.23
2018-04-10T03:12:05.398Z,12.70
2018-04-10T03:17:09.029Z,10.63
2018-04-10T03:22:12.292Z,10.07
2018-04-10T03:27:16.645Z,12.90
2018-04-10T03:32:20.275Z,13.13
2018-04-10T03:37:23.623Z,10.70
2018-04-10T03:42:26.858Z,13.67
2018-04-10T03:47:30.470Z,13.90
2018-04-10T03:52:34.539Z,20.10
2018-04-10T03:57:37.773Z,10.23
2018-04-10T04:02:41.108Z,15.07
2018-04-10T04:07:44.952Z,11.83
2018-04-10T04:12:49.259Z,13.43
2018-04-10T04:17:52.539Z,12.43
2018-04-10T04:22:55.875Z,15.10
2018-04-10T04:27:59.507Z,9.13
2018-04-10T04:33:04.234Z,14.33
2018-04-10T04:38:08.050Z,13.17
2018-04-10T04:43:11.343Z,9.70
2018-04-10T04:54:20.948Z,11.80
2018-04-10T04:59:24.702Z,14.10
2018-04-10T05:04:28.074Z,14.00
2018-04-10T05:09:31.305Z,13.30
2018-04-10T05:14:35.022Z,9.83
2018-04-10T05:19:38.686Z,9.53
2018-04-10T05:24:42.356Z,12.00
2018-04-10T05:29:45.648Z,12.63
2018-04-10T05:34:49.272Z,16.70
2018-04-10T05:39:52.974Z,10.93
2018-04-10T05:44:56.665Z,11.27
2018-04-10T05:50:00.002Z,11.93
2018-04-10T05:55:03.647Z,14.27
2018-04-10T06:00:06.908Z,13.03
2018-04-10T06:05:10.130Z,14.90
2018-04-10T06:10:13.941Z,12.97
2018-04-10T06:15:17.175Z,14.30
2018-04-10T06:20:20.602Z,14.40
2018-04-10T06:25:23.834Z,13.93
2018-04-10T06:30:27.079Z,12.80
2018-04-10T06:35:30.719Z,12.30
2018-04-10T06:40:34.470Z,12.40
2018-04-10T06:45:37.716Z,12.23
2018-04-10T06:50:41.405Z,11.37
2018-04-10T06:55:44.657Z,14.70
2018-04-10T07:00:47.893Z,11.70
2018-04-10T07:05:51.160Z,13.20
2018-04-10T07:10:54.807Z,13.13
2018-04-10T07:15:58.101Z,14.03
2018-04-10T07:21:01.335Z,10.98
2018-04-10T07:26:04.577Z,16.60
2018-04-10T07:31:07.848Z,13.85
2018-04-10T07:36:11.103Z,15.88
2018-04-10T07:41:14.393Z,20.17
2018-04-10T07:46:17.622Z,15.13
2018-04-10T07:51:21.278Z,14.87
2018-04-10T07:56:24.506Z,11.77
2018-04-10T08:01:27.765Z,13.25
2018-04-10T08:06:31.160Z,21.33
2018-04-10T08:11:34.796Z,12.17
2018-04-10T08:16:38.036Z,14.90
2018-04-10T08:21:41.257Z,12.57
2018-04-10T08:26:44.495Z,14.35
2018-04-10T08:31:48.146Z,15.45
2018-04-10T08:36:51.425Z,15.43
2018-04-10T08:41:54.675Z,13.45
2018-04-10T08:46:58.538Z,15.40
2018-04-10T08:52:01.769Z,17.90
2018-04-10T08:57:05.011Z,18.17
2018-04-10T09:02:08.346Z,12.37
2018-04-10T09:07:12.013Z,16.02
2018-04-10T09:12:15.274Z,18.73
2018-04-10T09:17:18.908Z,16.65
2018-04-10T09:22:22.155Z,16.12
2018-04-10T09:27:25.407Z,15.10
2018-04-10T09:32:29.652Z,13.82
2018-04-10T09:37:33.059Z,17.05
2018-04-10T09:42:36.298Z,18.10
2018-04-10T09:47:39.544Z,20.25
2018-04-10T09:52:42.781Z,16.75
2018-04-10T09:57:46.005Z,14.63
2018-04-10T10:02:49.243Z,15.02
2018-04-10T10:07:52.492Z,18.48
2018-04-10T10:12:56.154Z,13.90
2018-04-10T10:17:59.370Z,14.00
2018-04-10T10:23:02.612Z,11.90
2018-04-10T10:28:06.395Z,16.15
2018-04-10T10:33:09.637Z,16.23
2018-04-10T10:38:13.274Z,14.82
2018-04-10T10:43:16.503Z,18.25
2018-04-10T10:48:19.746Z,17.08
2018-04-10T10:53:23.067Z,13.98
2018-04-10T10:58:26.703Z,11.02
2018-04-10T11:03:29.940Z,9.23
2018-04-10T11:08:33.207Z,11.07
2018-04-10T11:13:36.855Z,9.75
2018-04-10T11:18:40.209Z,5.37
2018-04-10T11:23:43.863Z,11.43
2018-04-10T11:28:47.107Z,12.75
2018-04-10T11:33:50.347Z,15.30
2018-04-10T11:38:53.649Z,19.90
2018-04-10T11:43:56.879Z,12.77
2018-04-10T11:49:00.132Z,9.48
2018-04-10T11:54:03.364Z,7.97
2018-04-10T11:59:06.595Z,5.12
2018-04-10T12:04:09.838Z,2.65
2018-04-10T12:09:13.068Z,5.28
2018-04-10T12:14:16.466Z,3.20
2018-04-10T12:19:19.710Z,2.78
2018-04-10T12:24:23.322Z,1.67
2018-04-10T12:29:27.028Z,2.00
2018-04-10T12:34:30.279Z,1.50
2018-04-10T12:39:33.553Z,1.50
2018-04-10T12:44:37.205Z,4.32
2018-04-10T12:49:40.440Z,1.17
2018-04-10T12:54:43.683Z,1.05
2018-04-10T12:59:47.315Z,1.20
2018-04-10T13:04:50.565Z,1.35
2018-04-10T13:09:54.832Z,2.05
2018-04-10T13:14:58.470Z,2.92
2018-04-10T13:20:01.716Z,3.42
2018-04-10T13:25:04.953Z,5.12
2018-04-10T13:30:08.608Z,7.87
2018-04-10T13:35:11.868Z,6.60
2018-04-10T13:40:15.123Z,6.90
2018-04-10T13:45:18.485Z,6.95
2018-04-10T13:50:21.747Z,2.53
2018-04-10T13:55:24.992Z,4.05
2018-04-10T14:00:28.231Z,6.82
2018-04-10T14:05:31.536Z,4.90
2018-04-10T14:10:34.812Z,3.50
2018-04-10T14:15:38.078Z,6.50
2018-04-10T14:20:41.347Z,3.12
2018-04-10T14:25:44.991Z,4.22
2018-04-10T14:30:48.358Z,2.70
2018-04-10T14:35:52.073Z,3.12
2018-04-10T14:40:55.464Z,2.87
2018-04-10T14:45:58.792Z,5.47
2018-04-10T14:51:02.180Z,5.50
2018-04-10T14:56:05.448Z,4.18
2018-04-10T15:01:08.684Z,4.00
2018-04-10T15:06:11.955Z,4.37
2018-04-10T15:11:15.202Z,2.72
2018-04-10T15:16:18.604Z,4.32
2018-04-10T15:21:21.847Z,4.72
2018-04-10T15:26:25.519Z,5.45
2018-04-10T15:31:28.867Z,2.30
2018-04-10T15:36:32.527Z,3.08
2018-04-10T15:41:35.863Z,1.48
2018-04-10T15:46:39.117Z,2.20
2018-04-10T15:51:42.811Z,1.95
2018-04-10T15:56:46.067Z,2.30
2018-04-10T16:01:49.323Z,1.20
2018-04-10T16:06:52.590Z,1.75
2018-04-10T16:11:55.951Z,1.33
2018-04-10T16:16:59.603Z,1.12
2018-04-10T16:22:02.963Z,0.60
2018-04-10T16:27:06.235Z,1.00
2018-04-10T16:32:09.511Z,1.17
2018-04-10T16:37:12.858Z,0.52
2018-04-10T16:42:16.115Z,1.67
2018-04-10T16:47:19.771Z,0.62
2018-04-10T16:52:23.019Z,0.80
2018-04-10T16:57:26.833Z,1.13
2018-04-10T17:02:31.767Z,0.75
2018-04-10T17:07:35.020Z,0.70
2018-04-10T17:12:38.428Z,2.57
2018-04-10T17:17:41.687Z,0.97
2018-04-10T17:22:44.968Z,0.50
2018-04-10T17:27:48.254Z,0.50
2018-04-10T17:32:51.623Z,0.50
2018-04-10T17:37:54.975Z,0.90
2018-04-10T17:42:58.852Z,1.03
2018-04-10T17:48:02.776Z,0.80
2018-04-10T17:53:06.617Z,0.67
2018-04-10T17:58:11.258Z,0.60
2018-04-10T18:03:17.152Z,1.17
2018-04-10T18:08:20.495Z,1.07
2018-04-10T18:13:24.189Z,2.70
2018-04-10T18:18:28.031Z,0.70
2018-04-10T18:23:32.718Z,0.67
2018-04-10T18:28:38.800Z,0.40
2018-04-10T18:33:45.483Z,2.00
2018-04-10T18:38:49.829Z,2.83
2018-04-10T18:43:53.260Z,1.17
2018-04-10T18:48:56.491Z,0.73
2018-04-10T18:53:59.837Z,1.50
2018-04-10T18:59:03.699Z,1.80
2018-04-10T19:04:06.960Z,2.20
2018-04-10T19:09:10.224Z,3.47
2018-04-10T19:14:13.604Z,1.40
2018-04-10T19:19:16.867Z,1.70
2018-04-10T19:24:21.009Z,1.70
2018-04-10T19:29:24.659Z,3.83
2018-04-10T19:34:27.912Z,0.70
2018-04-10T19:39:31.247Z,0.67
2018-04-10T19:44:35.024Z,3.23
2018-04-10T19:49:38.281Z,0.83
2018-04-10T19:54:43.923Z,1.47
2018-04-10T19:59:47.560Z,3.47
2018-04-10T20:04:51.868Z,1.90
2018-04-10T20:09:55.299Z,0.93
2018-04-10T20:14:58.950Z,1.30
2018-04-10T20:20:02.235Z,0.77
2018-04-10T20:25:06.532Z,1.90
2018-04-10T20:30:09.783Z,1.17
2018-04-10T20:35:13.148Z,1.03
2018-04-10T20:40:16.779Z,1.47
2018-04-10T20:45:20.480Z,1.30
2018-04-10T20:50:24.180Z,1.60
2018-04-10T20:55:27.460Z,1.40
2018-04-10T21:00:30.843Z,2.13
2018-04-10T21:05:34.323Z,3.40
2018-04-10T21:10:41.032Z,0.83
2018-04-10T21:15:45.047Z,1.03
2018-04-10T21:20:48.832Z,1.00
2018-04-10T21:25:54.587Z,0.90
2018-04-10T21:30:58.132Z,1.20
2018-04-10T21:36:01.427Z,2.23
2018-04-10T21:41:05.984Z,4.07
2018-04-10T21:46:10.111Z,1.73
2018-04-10T21:51:14.023Z,1.53
2018-04-10T21:56:17.261Z,2.40
2018-04-10T22:01:20.699Z,1.40
2018-04-10T22:06:24.252Z,1.60
2018-04-10T22:11:27.576Z,1.60
2018-04-10T22:16:31.225Z,1.10
2018-04-10T22:21:37.244Z,3.40
2018-04-10T22:26:41.215Z,0.77
2018-04-10T22:31:44.592Z,3.47
2018-04-10T22:36:48.312Z,1.37
2018-04-10T22:41:51.675Z,1.57
2018-04-10T22:46:54.991Z,2.00
2018-04-10T22:51:58.637Z,2.03
2018-04-10T22:57:01.928Z,1.67
2018-04-10T23:02:05.833Z,0.80
2018-04-10T23:07:09.097Z,1.77
2018-04-10T23:12:13.003Z,1.07
2018-04-10T23:17:16.364Z,1.13
2018-04-10T23:22:19.821Z,0.70
2018-04-10T23:27:23.634Z,0.80
2018-04-10T23:32:27.287Z,1.00
2018-04-10T23:37:30.643Z,1.23
2018-04-10T23:42:34.202Z,2.00
2018-04-10T23:47:38.007Z,1.70
2018-04-10T23:52:41.286Z,1.77
2018-04-10T23:57:44.887Z,1.57
